sensor_id;sensor_type;location;lat;lon;timestamp;pressure;altitude;pressure_sealevel;temperature;humidity
21664;BME280;10993;52.510;13.456;2023-05-03T00:01:13;56408.94;;;-146.93;39.80
21664;BME280;10993;52.510;13.456;2023-05-03T00:06:14;56386.66;;;-146.93;39.93
21664;BME280;10993;52.510;13.456;2023-05-03T00:11:15;56321.88;;;-146.93;39.94
21664;BME280;10993;52.510;13.456;2023-05-03T00:16:17;56423.13;;;-146.93;39.76
21664;BME280;10993;52.510;13.456;2023-05-03T00:21:18;56378.56;;;-146.93;40.09
21664;BME280;10993;52.510;13.456;2023-05-03T00:26:19;56346.19;;;-146.93;40.53
21664;BME280;10993;52.510;13.456;2023-05-03T00:31:21;56344.16;;;-146.93;40.77
21664;BME280;10993;52.510;13.456;2023-05-03T00:36:21;56289.50;;;-146.93;40.91
21664;BME280;10993;52.510;13.456;2023-05-03T00:41:21;56184.22;;;-146.93;41.62
21664;BME280;10993;52.510;13.456;2023-05-03T00:46:24;56352.25;;;-146.93;42.15
21664;BME280;10993;52.510;13.456;2023-05-03T00:51:26;56336.06;;;-146.93;42.69
21664;BME280;10993;52.510;13.456;2023-05-03T00:56:27;56309.75;;;-146.93;42.93
21664;BME280;10993;52.510;13.456;2023-05-03T01:01:28;56273.28;;;-146.93;43.57
21664;BME280;10993;52.510;13.456;2023-05-03T01:06:36;56342.13;;;-146.93;44.49
21664;BME280;10993;52.510;13.456;2023-05-03T01:11:46;56303.66;;;-146.93;45.27
21664;BME280;10993;52.510;13.456;2023-05-03T01:16:51;56305.69;;;-146.93;46.38
21664;BME280;10993;52.510;13.456;2023-05-03T01:22:02;56329.97;;;-146.93;47.19
21664;BME280;10993;52.510;13.456;2023-05-03T01:27:08;56334.03;;;-146.93;48.04
21664;BME280;10993;52.510;13.456;2023-05-03T01:32:14;56309.75;;;-146.93;48.90
21664;BME280;10993;52.510;13.456;2023-05-03T01:37:18;56311.75;;;-146.93;49.97
21664;BME280;10993;52.510;13.456;2023-05-03T01:42:23;56319.84;;;-146.93;50.59
21664;BME280;10993;52.510;13.456;2023-05-03T01:47:23;56327.97;;;-146.93;50.99
21664;BME280;10993;52.510;13.456;2023-05-03T01:52:24;56315.81;;;-146.93;50.69
21664;BME280;10993;52.510;13.456;2023-05-03T01:57:27;56309.75;;;-146.93;51.85
21664;BME280;10993;52.510;13.456;2023-05-03T02:02:27;56293.53;;;-146.93;51.56
21664;BME280;10993;52.510;13.456;2023-05-03T02:07:27;56301.63;;;-146.93;52.34
21664;BME280;10993;52.510;13.456;2023-05-03T02:12:29;56325.94;;;-146.93;53.11
21664;BME280;10993;52.510;13.456;2023-05-03T02:17:29;56249.00;;;-146.93;53.17
21664;BME280;10993;52.510;13.456;2023-05-03T02:22:30;56327.97;;;-146.93;53.42
21664;BME280;10993;52.510;13.456;2023-05-03T02:27:32;56261.16;;;-146.93;54.32
21664;BME280;10993;52.510;13.456;2023-05-03T02:32:32;56273.28;;;-146.93;54.61
21664;BME280;10993;52.510;13.456;2023-05-03T02:37:32;56240.91;;;-146.93;54.70
21664;BME280;10993;52.510;13.456;2023-05-03T02:42:34;56321.88;;;-146.93;54.70
21664;BME280;10993;52.510;13.456;2023-05-03T02:47:34;56354.28;;;-146.93;55.13
21664;BME280;10993;52.510;13.456;2023-05-03T02:52:35;56340.09;;;-146.93;55.89
21664;BME280;10993;52.510;13.456;2023-05-03T02:57:36;56313.78;;;-146.93;55.89
21664;BME280;10993;52.510;13.456;2023-05-03T03:02:37;56307.72;;;-146.93;56.89
21664;BME280;10993;52.510;13.456;2023-05-03T03:07:37;56362.38;;;-146.93;56.50
21664;BME280;10993;52.510;13.456;2023-05-03T03:12:40;56334.03;;;-146.93;57.64
21664;BME280;10993;52.510;13.456;2023-05-03T03:17:40;56329.97;;;-146.93;57.72
21664;BME280;10993;52.510;13.456;2023-05-03T03:22:41;56336.06;;;-146.93;58.06
21664;BME280;10993;52.510;13.456;2023-05-03T03:27:44;56317.84;;;-146.93;58.46
21664;BME280;10993;52.510;13.456;2023-05-03T03:32:44;56323.91;;;-146.93;58.53
21664;BME280;10993;52.510;13.456;2023-05-03T03:37:45;56289.50;;;-146.93;59.28
21664;BME280;10993;52.510;13.456;2023-05-03T03:42:47;56327.97;;;-146.93;58.77
21664;BME280;10993;52.510;13.456;2023-05-03T03:47:47;56342.13;;;-146.93;57.99
21664;BME280;10993;52.510;13.456;2023-05-03T03:52:47;56305.69;;;-146.93;58.91
21664;BME280;10993;52.510;13.456;2023-05-03T03:57:49;56321.88;;;-146.93;58.63
21664;BME280;10993;52.510;13.456;2023-05-03T04:02:50;56261.16;;;-146.93;57.91
21664;BME280;10993;52.510;13.456;2023-05-03T04:07:50;56281.41;;;-146.93;57.38
21664;BME280;10993;52.510;13.456;2023-05-03T04:12:52;56261.16;;;-146.93;56.12
21664;BME280;10993;52.510;13.456;2023-05-03T04:17:53;56309.75;;;-146.93;55.13
21664;BME280;10993;52.510;13.456;2023-05-03T04:22:53;56332.00;;;-146.93;49.35
21664;BME280;10993;52.510;13.456;2023-05-03T04:27:55;56325.94;;;-146.93;42.42
21664;BME280;10993;52.510;13.456;2023-05-03T04:32:55;56528.41;;;-146.93;37.82
21664;BME280;10993;52.510;13.456;2023-05-03T04:37:58;56666.06;;;-146.93;35.03
21664;BME280;10993;52.510;13.456;2023-05-03T04:43:00;56826.03;;;-146.93;32.78
21664;BME280;10993;52.510;13.456;2023-05-03T04:48:00;56986.00;;;-146.93;30.54
21664;BME280;10993;52.510;13.456;2023-05-03T04:53:00;57295.84;;;-146.93;28.32
21664;BME280;10993;52.510;13.456;2023-05-03T04:58:02;57567.22;;;-146.93;27.15
21664;BME280;10993;52.510;13.456;2023-05-03T05:03:02;57281.66;;;-146.93;26.85
21664;BME280;10993;52.510;13.456;2023-05-03T05:08:03;57680.63;;;-146.93;26.33
21664;BME280;10993;52.510;13.456;2023-05-03T05:13:04;57948.00;;;-146.93;25.51
21664;BME280;10993;52.510;13.456;2023-05-03T05:18:05;58338.94;;;-146.93;23.69
21664;BME280;10993;52.510;13.456;2023-05-03T05:23:06;58711.69;;;-146.93;23.29
21664;BME280;10993;52.510;13.456;2023-05-03T05:28:08;59179.72;;;-146.93;22.04
21664;BME280;10993;52.510;13.456;2023-05-03T05:33:08;59382.38;;;-146.93;21.62
21664;BME280;10993;52.510;13.456;2023-05-03T05:38:09;59420.88;;;-146.93;21.49
21664;BME280;10993;52.510;13.456;2023-05-03T05:43:11;59911.28;;;-146.93;20.89
21664;BME280;10993;52.510;13.456;2023-05-03T05:48:12;59510.03;;;-146.93;21.21
21664;BME280;10993;52.510;13.456;2023-05-03T05:53:13;58756.28;;;-146.93;22.29
21664;BME280;10993;52.510;13.456;2023-05-03T05:58:14;59315.50;;;-146.93;21.85
21664;BME280;10993;52.510;13.456;2023-05-03T06:03:15;59307.38;;;-146.93;21.56
21664;BME280;10993;52.510;13.456;2023-05-03T06:08:15;58715.75;;;-146.93;22.09
21664;BME280;10993;52.510;13.456;2023-05-03T06:13:17;59327.66;;;-146.93;21.74
21664;BME280;10993;52.510;13.456;2023-05-03T06:18:18;59635.66;;;-146.93;20.96
21664;BME280;10993;52.510;13.456;2023-05-03T06:23:18;59868.72;;;-146.93;20.74
21664;BME280;10993;52.510;13.456;2023-05-03T06:28:20;60085.59;;;-146.93;20.76
21664;BME280;10993;52.510;13.456;2023-05-03T06:33:20;59970.06;;;-146.93;20.24
21664;BME280;10993;52.510;13.456;2023-05-03T06:38:20;60182.88;;;-146.93;20.48
21664;BME280;10993;52.510;13.456;2023-05-03T06:43:22;59625.53;;;-146.93;20.41
21664;BME280;10993;52.510;13.456;2023-05-03T06:48:23;58821.09;;;-146.93;21.73
21664;BME280;10993;52.510;13.456;2023-05-03T06:53:23;60107.88;;;-146.93;20.54
21664;BME280;10993;52.510;13.456;2023-05-03T06:58:25;61030.22;;;-146.93;19.35
21664;BME280;10993;52.510;13.456;2023-05-03T07:03:25;61445.84;;;-146.93;18.92
21664;BME280;10993;52.510;13.456;2023-05-03T07:08:25;61569.53;;;-146.93;18.56
21664;BME280;10993;52.510;13.456;2023-05-03T07:13:27;61752.03;;;-146.93;18.04
21664;BME280;10993;52.510;13.456;2023-05-03T07:18:27;60028.84;;;-146.93;19.20
21664;BME280;10993;52.510;13.456;2023-05-03T07:23:28;59811.97;;;-146.93;19.69
21664;BME280;10993;52.510;13.456;2023-05-03T07:28:29;60786.94;;;-146.93;18.52
21664;BME280;10993;52.510;13.456;2023-05-03T07:33:32;61143.75;;;-146.93;18.11
21664;BME280;10993;52.510;13.456;2023-05-03T07:38:33;61871.66;;;-146.93;18.19
21664;BME280;10993;52.510;13.456;2023-05-03T07:43:34;61350.53;;;-146.93;18.27
21664;BME280;10993;52.510;13.456;2023-05-03T07:48:35;60286.25;;;-146.93;19.28
21664;BME280;10993;52.510;13.456;2023-05-03T07:53:35;61074.81;;;-146.93;18.55
21664;BME280;10993;52.510;13.456;2023-05-03T07:58:37;61981.16;;;-146.93;18.24
21664;BME280;10993;52.510;13.456;2023-05-03T08:03:37;61470.16;;;-146.93;17.64
21664;BME280;10993;52.510;13.456;2023-05-03T08:08:38;59907.22;;;-146.93;19.35
21664;BME280;10993;52.510;13.456;2023-05-03T08:13:39;60249.75;;;-146.93;18.94
21664;BME280;10993;52.510;13.456;2023-05-03T08:18:40;59659.97;;;-146.93;19.81
21664;BME280;10993;52.510;13.456;2023-05-03T08:23:40;60519.34;;;-146.93;18.37
21664;BME280;10993;52.510;13.456;2023-05-03T08:28:42;61093.06;;;-146.93;18.43
21664;BME280;10993;52.510;13.456;2023-05-03T08:33:43;61670.91;;;-146.93;17.96
21664;BME280;10993;52.510;13.456;2023-05-03T08:38:46;61646.56;;;-146.93;17.98
21664;BME280;10993;52.510;13.456;2023-05-03T08:43:51;61612.09;;;-146.93;18.03
21664;BME280;10993;52.510;13.456;2023-05-03T08:48:53;61533.03;;;-146.93;17.84
21664;BME280;10993;52.510;13.456;2023-05-03T08:53:54;61257.28;;;-146.93;17.93
21664;BME280;10993;52.510;13.456;2023-05-03T08:58:56;60316.66;;;-146.93;18.98
21664;BME280;10993;52.510;13.456;2023-05-03T09:03:57;59088.56;;;-146.93;20.49
21664;BME280;10993;52.510;13.456;2023-05-03T09:08:57;59329.69;;;-146.93;19.61
21664;BME280;10993;52.510;13.456;2023-05-03T09:14:09;60199.09;;;-146.93;18.86
21664;BME280;10993;52.510;13.456;2023-05-03T09:19:11;60592.31;;;-146.93;18.88
21664;BME280;10993;52.510;13.456;2023-05-03T09:24:13;60612.59;;;-146.93;18.81
21664;BME280;10993;52.510;13.456;2023-05-03T09:29:27;60580.16;;;-146.93;18.75
21664;BME280;10993;52.510;13.456;2023-05-03T09:34:28;60559.88;;;-146.93;18.79
21664;BME280;10993;52.510;13.456;2023-05-03T09:39:29;60393.69;;;-146.93;18.72
21664;BME280;10993;52.510;13.456;2023-05-03T09:44:41;60085.59;;;-146.93;18.99
21664;BME280;10993;52.510;13.456;2023-05-03T09:49:43;59477.59;;;-146.93;19.59
21664;BME280;10993;52.510;13.456;2023-05-03T09:54:44;59704.56;;;-146.93;19.43
21664;BME280;10993;52.510;13.456;2023-05-03T09:59:46;60268.00;;;-146.93;18.80
21664;BME280;10993;52.510;13.456;2023-05-03T10:04:50;60186.94;;;-146.93;18.69
21664;BME280;10993;52.510;13.456;2023-05-03T10:09:56;59972.09;;;-146.93;18.81
21664;BME280;10993;52.510;13.456;2023-05-03T10:14:59;59874.81;;;-146.93;18.76
21664;BME280;10993;52.510;13.456;2023-05-03T10:20:11;60308.53;;;-146.93;18.71
21664;BME280;10993;52.510;13.456;2023-05-03T10:25:14;60932.91;;;-146.93;18.42
21664;BME280;10993;52.510;13.456;2023-05-03T10:30:27;60314.63;;;-146.93;18.45
21664;BME280;10993;52.510;13.456;2023-05-03T10:35:28;60764.63;;;-146.93;18.06
21664;BME280;10993;52.510;13.456;2023-05-03T10:40:41;59283.06;;;-146.93;19.33
21664;BME280;10993;52.510;13.456;2023-05-03T10:45:43;59696.47;;;-146.93;19.54
21664;BME280;10993;52.510;13.456;2023-05-03T10:50:44;59420.88;;;-146.93;19.29
21664;BME280;10993;52.510;13.456;2023-05-03T10:55:59;59603.25;;;-146.93;19.17
21664;BME280;10993;52.510;13.456;2023-05-03T11:01:02;59921.41;;;-146.93;19.06
21664;BME280;10993;52.510;13.456;2023-05-03T11:06:03;59210.13;;;-146.93;19.39
21664;BME280;10993;52.510;13.456;2023-05-03T11:11:04;59396.53;;;-146.93;19.58
21664;BME280;10993;52.510;13.456;2023-05-03T11:16:09;59001.41;;;-146.93;19.72
21664;BME280;10993;52.510;13.456;2023-05-03T11:21:10;58827.19;;;-146.93;19.93
21664;BME280;10993;52.510;13.456;2023-05-03T11:26:12;59096.66;;;-146.93;19.11
21664;BME280;10993;52.510;13.456;2023-05-03T11:31:15;58723.84;;;-146.93;19.85
21664;BME280;10993;52.510;13.456;2023-05-03T11:36:16;58541.53;;;-146.93;20.51
21664;BME280;10993;52.510;13.456;2023-05-03T11:41:16;58914.31;;;-146.93;20.32
21664;BME280;10993;52.510;13.456;2023-05-03T11:46:20;59084.50;;;-146.93;20.19
21664;BME280;10993;52.510;13.456;2023-05-03T11:51:23;59062.22;;;-146.93;19.68
21664;BME280;10993;52.510;13.456;2023-05-03T11:56:23;58971.03;;;-146.93;19.82
21664;BME280;10993;52.510;13.456;2023-05-03T12:01:27;58681.31;;;-146.93;19.89
21664;BME280;10993;52.510;13.456;2023-05-03T12:06:31;57698.84;;;-146.93;21.54
21664;BME280;10993;52.510;13.456;2023-05-03T12:11:39;57099.41;;;-146.93;23.97
21664;BME280;10993;52.510;13.456;2023-05-03T12:16:48;57174.31;;;-146.93;24.88
21664;BME280;10993;52.510;13.456;2023-05-03T12:21:49;57044.72;;;-146.93;25.29
21664;BME280;10993;52.510;13.456;2023-05-03T12:26:49;56977.91;;;-146.93;25.57
21664;BME280;10993;52.510;13.456;2023-05-03T12:31:51;56848.31;;;-146.93;26.35
21664;BME280;10993;52.510;13.456;2023-05-03T12:36:51;56909.06;;;-146.93;26.54
21664;BME280;10993;52.510;13.456;2023-05-03T12:41:52;56743.03;;;-146.93;27.32
21664;BME280;10993;52.510;13.456;2023-05-03T12:46:56;56795.66;;;-146.93;27.47
21664;BME280;10993;52.510;13.456;2023-05-03T12:51:56;56751.13;;;-146.93;27.35
21664;BME280;10993;52.510;13.456;2023-05-03T12:57:00;56753.16;;;-146.93;27.54
21664;BME280;10993;52.510;13.456;2023-05-03T13:02:04;56609.38;;;-146.93;27.94
21664;BME280;10993;52.510;13.456;2023-05-03T13:07:04;56722.78;;;-146.93;27.89
21664;BME280;10993;52.510;13.456;2023-05-03T13:12:05;56803.75;;;-146.93;27.82
21664;BME280;10993;52.510;13.456;2023-05-03T13:17:06;56779.47;;;-146.93;27.31
21664;BME280;10993;52.510;13.456;2023-05-03T13:22:07;56706.56;;;-146.93;27.78
21664;BME280;10993;52.510;13.456;2023-05-03T13:27:07;56745.03;;;-146.93;27.68
21664;BME280;10993;52.510;13.456;2023-05-03T13:32:10;56771.38;;;-146.93;27.49
21664;BME280;10993;52.510;13.456;2023-05-03T13:37:11;56826.03;;;-146.93;27.40
21664;BME280;10993;52.510;13.456;2023-05-03T13:42:17;56686.31;;;-146.93;27.68
21664;BME280;10993;52.510;13.456;2023-05-03T13:47:19;56777.44;;;-146.93;27.51
21664;BME280;10993;52.510;13.456;2023-05-03T13:52:19;56824.00;;;-146.93;27.75
21664;BME280;10993;52.510;13.456;2023-05-03T13:57:20;56819.97;;;-146.93;27.31
21664;BME280;10993;52.510;13.456;2023-05-03T14:02:21;56817.94;;;-146.93;27.17
21664;BME280;10993;52.510;13.456;2023-05-03T14:07:22;56819.97;;;-146.93;27.47
21664;BME280;10993;52.510;13.456;2023-05-03T14:12:23;56856.41;;;-146.93;27.18
21664;BME280;10993;52.510;13.456;2023-05-03T14:17:26;56767.31;;;-146.93;27.41
21664;BME280;10993;52.510;13.456;2023-05-03T14:22:27;56838.19;;;-146.93;27.05
21664;BME280;10993;52.510;13.456;2023-05-03T14:27:28;56819.97;;;-146.93;27.55
21664;BME280;10993;52.510;13.456;2023-05-03T14:32:31;56791.63;;;-146.93;27.77
21664;BME280;10993;52.510;13.456;2023-05-03T14:37:31;56783.50;;;-146.93;27.83
21664;BME280;10993;52.510;13.456;2023-05-03T14:42:32;56684.31;;;-146.93;28.17
21664;BME280;10993;52.510;13.456;2023-05-03T14:47:34;56649.88;;;-146.93;28.57
21664;BME280;10993;52.510;13.456;2023-05-03T14:52:34;56728.84;;;-146.93;28.51
21664;BME280;10993;52.510;13.456;2023-05-03T14:57:35;56722.78;;;-146.93;28.20
21664;BME280;10993;52.510;13.456;2023-05-03T15:02:38;56639.75;;;-146.93;28.32
21664;BME280;10993;52.510;13.456;2023-05-03T15:07:39;56771.38;;;-146.93;28.59
21664;BME280;10993;52.510;13.456;2023-05-03T15:12:39;56785.53;;;-146.93;28.78
21664;BME280;10993;52.510;13.456;2023-05-03T15:17:42;56777.44;;;-146.93;28.89
21664;BME280;10993;52.510;13.456;2023-05-03T15:22:42;56763.28;;;-146.93;28.64
21664;BME280;10993;52.510;13.456;2023-05-03T15:27:43;56757.19;;;-146.93;28.53
21664;BME280;10993;52.510;13.456;2023-05-03T15:32:44;56791.63;;;-146.93;28.50
21664;BME280;10993;52.510;13.456;2023-05-03T15:37:45;56759.22;;;-146.93;27.80
21664;BME280;10993;52.510;13.456;2023-05-03T15:42:45;56728.84;;;-146.93;28.34
21664;BME280;10993;52.510;13.456;2023-05-03T15:47:47;56767.31;;;-146.93;29.04
21664;BME280;10993;52.510;13.456;2023-05-03T15:52:47;56767.31;;;-146.93;28.63
21664;BME280;10993;52.510;13.456;2023-05-03T15:57:48;56755.16;;;-146.93;28.50
21664;BME280;10993;52.510;13.456;2023-05-03T16:02:49;56670.13;;;-146.93;28.63
21664;BME280;10993;52.510;13.456;2023-05-03T16:07:50;56722.78;;;-146.93;28.56
21664;BME280;10993;52.510;13.456;2023-05-03T16:12:51;56714.66;;;-146.93;28.51
21664;BME280;10993;52.510;13.456;2023-05-03T16:17:52;56710.63;;;-146.93;28.44
21664;BME280;10993;52.510;13.456;2023-05-03T16:22:53;56696.44;;;-146.93;28.90
21664;BME280;10993;52.510;13.456;2023-05-03T16:27:53;56631.66;;;-146.93;28.66
21664;BME280;10993;52.510;13.456;2023-05-03T16:32:55;56706.56;;;-146.93;28.79
21664;BME280;10993;52.510;13.456;2023-05-03T16:37:55;56666.06;;;-146.93;29.21
21664;BME280;10993;52.510;13.456;2023-05-03T16:42:56;56678.22;;;-146.93;29.57
21664;BME280;10993;52.510;13.456;2023-05-03T16:47:58;56649.88;;;-146.93;29.48
21664;BME280;10993;52.510;13.456;2023-05-03T16:52:58;56674.19;;;-146.93;29.54
21664;BME280;10993;52.510;13.456;2023-05-03T16:57:59;56678.22;;;-146.93;30.13
21664;BME280;10993;52.510;13.456;2023-05-03T17:03:01;56577.00;;;-146.93;30.53
21664;BME280;10993;52.510;13.456;2023-05-03T17:08:03;56657.97;;;-146.93;30.29
21664;BME280;10993;52.510;13.456;2023-05-03T17:13:03;56615.47;;;-146.93;30.50
21664;BME280;10993;52.510;13.456;2023-05-03T17:18:06;56662.03;;;-146.93;30.34
21664;BME280;10993;52.510;13.456;2023-05-03T17:23:07;56593.19;;;-146.93;30.76
21664;BME280;10993;52.510;13.456;2023-05-03T17:28:08;56611.41;;;-146.93;30.50
21664;BME280;10993;52.510;13.456;2023-05-03T17:33:10;56611.41;;;-146.93;30.84
21664;BME280;10993;52.510;13.456;2023-05-03T17:38:10;56613.44;;;-146.93;31.19
21664;BME280;10993;52.510;13.456;2023-05-03T17:43:11;56621.53;;;-146.93;31.26
21664;BME280;10993;52.510;13.456;2023-05-03T17:48:13;56599.25;;;-146.93;31.64
21664;BME280;10993;52.510;13.456;2023-05-03T17:53:13;56536.50;;;-146.93;31.48
21664;BME280;10993;52.510;13.456;2023-05-03T17:58:16;56536.50;;;-146.93;31.81
21664;BME280;10993;52.510;13.456;2023-05-03T18:03:17;56508.16;;;-146.93;32.26
21664;BME280;10993;52.510;13.456;2023-05-03T18:08:18;56864.50;;;-146.93;32.33
21664;BME280;10993;52.510;13.456;2023-05-03T18:13:18;56542.56;;;-146.93;32.93
21664;BME280;10993;52.510;13.456;2023-05-03T18:18:20;56520.28;;;-146.93;32.56
21664;BME280;10993;52.510;13.456;2023-05-03T18:23:20;56461.59;;;-146.93;32.67
21664;BME280;10993;52.510;13.456;2023-05-03T18:28:21;56504.09;;;-146.93;32.74
21664;BME280;10993;52.510;13.456;2023-05-03T18:33:24;56471.72;;;-146.93;32.96
21664;BME280;10993;52.510;13.456;2023-05-03T18:38:24;56366.44;;;-146.93;33.24
21664;BME280;10993;52.510;13.456;2023-05-03T18:43:24;56489.94;;;-146.93;33.00
21664;BME280;10993;52.510;13.456;2023-05-03T18:48:26;57439.63;;;-146.93;33.61
21664;BME280;10993;52.510;13.456;2023-05-03T18:53:27;56461.59;;;-146.93;33.58
21664;BME280;10993;52.510;13.456;2023-05-03T18:58:29;56455.50;;;-146.93;34.08
21664;BME280;10993;52.510;13.456;2023-05-03T19:03:31;56437.28;;;-146.93;34.37
21664;BME280;10993;52.510;13.456;2023-05-03T19:08:31;56392.75;;;-146.93;34.32
21664;BME280;10993;52.510;13.456;2023-05-03T19:13:32;56336.06;;;-146.93;34.99
21664;BME280;10993;52.510;13.456;2023-05-03T19:18:34;56421.09;;;-146.93;34.89
21664;BME280;10993;52.510;13.456;2023-05-03T19:23:36;56350.22;;;-146.93;35.22
21664;BME280;10993;52.510;13.456;2023-05-03T19:28:37;56376.56;;;-146.93;35.64
21664;BME280;10993;52.510;13.456;2023-05-03T19:33:38;56374.53;;;-146.93;36.57
21664;BME280;10993;52.510;13.456;2023-05-03T19:38:39;56370.47;;;-146.93;37.43
21664;BME280;10993;52.510;13.456;2023-05-03T19:43:39;56382.63;;;-146.93;38.31
21664;BME280;10993;52.510;13.456;2023-05-03T19:48:41;56354.28;;;-146.93;39.18
21664;BME280;10993;52.510;13.456;2023-05-03T19:53:42;56350.22;;;-146.93;40.33
21664;BME280;10993;52.510;13.456;2023-05-03T19:58:42;56350.22;;;-146.93;41.16
21664;BME280;10993;52.510;13.456;2023-05-03T20:03:44;56336.06;;;-146.93;42.34
21664;BME280;10993;52.510;13.456;2023-05-03T20:08:45;56325.94;;;-146.93;43.22
21664;BME280;10993;52.510;13.456;2023-05-03T20:13:46;56538.53;;;-146.93;44.11
21664;BME280;10993;52.510;13.456;2023-05-03T20:18:47;56354.28;;;-146.93;44.94
21664;BME280;10993;52.510;13.456;2023-05-03T20:23:48;56222.69;;;-146.93;45.85
21664;BME280;10993;52.510;13.456;2023-05-03T20:28:49;56362.38;;;-146.93;46.19
21664;BME280;10993;52.510;13.456;2023-05-03T20:33:51;56317.84;;;-146.93;46.43
21664;BME280;10993;52.510;13.456;2023-05-03T20:38:51;56372.50;;;-146.93;45.56
21664;BME280;10993;52.510;13.456;2023-05-03T20:43:53;56323.91;;;-146.93;46.03
21664;BME280;10993;52.510;13.456;2023-05-03T20:48:56;56342.13;;;-146.93;46.89
21664;BME280;10993;52.510;13.456;2023-05-03T20:53:56;56477.78;;;-146.93;47.58
21664;BME280;10993;52.510;13.456;2023-05-03T20:58:56;56307.72;;;-146.93;48.28
21664;BME280;10993;52.510;13.456;2023-05-03T21:03:58;56344.16;;;-146.93;48.09
21664;BME280;10993;52.510;13.456;2023-05-03T21:08:59;56342.13;;;-146.93;47.69
21664;BME280;10993;52.510;13.456;2023-05-03T21:13:59;56336.06;;;-146.93;49.10
21664;BME280;10993;52.510;13.456;2023-05-03T21:19:01;56350.22;;;-146.93;48.33
21664;BME280;10993;52.510;13.456;2023-05-03T21:24:05;56218.63;;;-146.93;48.95
21664;BME280;10993;52.510;13.456;2023-05-03T21:29:05;56273.28;;;-146.93;48.35
21664;BME280;10993;52.510;13.456;2023-05-03T21:34:07;56346.19;;;-146.93;47.79
21664;BME280;10993;52.510;13.456;2023-05-03T21:39:07;56329.97;;;-146.93;47.57
21664;BME280;10993;52.510;13.456;2023-05-03T21:44:08;56317.84;;;-146.93;46.55
21664;BME280;10993;52.510;13.456;2023-05-03T21:49:09;56321.88;;;-146.93;46.60
21664;BME280;10993;52.510;13.456;2023-05-03T21:54:10;56325.94;;;-146.93;46.34
21664;BME280;10993;52.510;13.456;2023-05-03T21:59:10;56313.78;;;-146.93;45.94
21664;BME280;10993;52.510;13.456;2023-05-03T22:04:12;56360.34;;;-146.93;46.38
21664;BME280;10993;52.510;13.456;2023-05-03T22:09:12;56291.53;;;-146.93;46.08
21664;BME280;10993;52.510;13.456;2023-05-03T22:14:12;56212.56;;;-146.93;46.01
21664;BME280;10993;52.510;13.456;2023-05-03T22:19:14;56271.28;;;-146.93;46.72
21664;BME280;10993;52.510;13.456;2023-05-03T22:24:14;56259.13;;;-146.93;46.93
21664;BME280;10993;52.510;13.456;2023-05-03T22:29:15;56196.38;;;-146.93;46.99
21664;BME280;10993;52.510;13.456;2023-05-03T22:34:18;56329.97;;;-146.93;47.15
21664;BME280;10993;52.510;13.456;2023-05-03T22:39:18;56309.75;;;-146.93;47.50
21664;BME280;10993;52.510;13.456;2023-05-03T22:44:19;56267.22;;;-146.93;48.78
21664;BME280;10993;52.510;13.456;2023-05-03T22:49:20;56317.84;;;-146.93;49.97
21664;BME280;10993;52.510;13.456;2023-05-03T22:54:21;56265.19;;;-146.93;50.94
21664;BME280;10993;52.510;13.456;2023-05-03T22:59:21;56271.28;;;-146.93;52.27
21664;BME280;10993;52.510;13.456;2023-05-03T23:04:23;56307.72;;;-146.93;52.69
21664;BME280;10993;52.510;13.456;2023-05-03T23:09:23;56277.34;;;-146.93;54.17
21664;BME280;10993;52.510;13.456;2023-05-03T23:14:24;56249.00;;;-146.93;55.44
21664;BME280;10993;52.510;13.456;2023-05-03T23:19:25;56242.94;;;-146.93;55.68
21664;BME280;10993;52.510;13.456;2023-05-03T23:24:26;56277.34;;;-146.93;57.46
21664;BME280;10993;52.510;13.456;2023-05-03T23:29:26;56172.06;;;-146.93;58.30
21664;BME280;10993;52.510;13.456;2023-05-03T23:34:28;56244.94;;;-146.93;59.37
21664;BME280;10993;52.510;13.456;2023-05-03T23:39:28;56281.41;;;-146.93;60.85
21664;BME280;10993;52.510;13.456;2023-05-03T23:44:29;56285.44;;;-146.93;61.67
21664;BME280;10993;52.510;13.456;2023-05-03T23:49:30;56196.38;;;-146.93;62.19
21664;BME280;10993;52.510;13.456;2023-05-03T23:54:31;56249.00;;;-146.93;62.56
21664;BME280;10993;52.510;13.456;2023-05-03T23:59:32;56293.53;;;-146.93;62.78
